Time;durP1;ratioP1;P1;durP2;ratioP2;P2;SDS_P1;SDS_P2;PMS_P1;PMS_P2;Temp;Humidity;BMP_temperature;BMP_pressure;BME280_temperature;BME280_humidity;BME280_pressure;Samples;Min_cycle;Max_cycle;Signal;HPM_P1;HPM_P2
2021/12/23 00:00:30;;;;;;;32.17;26.07;;;;;;;-5.16;70.22;98865.94;4150294;28;20332;-50
2021/12/23 00:02:31;;;;;;;33.43;25.53;;;;;;;-5.13;70.03;98870.16;4149774;28;20209;-50
2021/12/23 00:04:33;;;;;;;33.27;26.30;;;;;;;-5.13;69.89;98862.97;4130979;28;20205;-49
2021/12/23 00:06:40;;;;;;;42.23;26.90;;;;;;;-5.10;69.96;98867.19;4150296;28;20232;-50
2021/12/23 00:08:42;;;;;;;33.73;25.47;;;;;;;-5.09;69.78;98867.06;4130874;28;20217;-50
2021/12/23 00:10:44;;;;;;;33.30;28.13;;;;;;;-5.08;69.58;98873.25;4131742;28;20210;-49
2021/12/23 00:12:48;;;;;;;35.33;27.73;;;;;;;-5.09;69.36;98866.19;4129401;28;20304;-50
2021/12/23 00:14:51;;;;;;;40.27;27.00;;;;;;;-5.08;69.65;98865.25;4148066;28;20644;-51
2021/12/23 00:17:17;;;;;;;45.00;30.60;;;;;;;-5.11;69.39;98869.03;4148865;28;20221;-49
2021/12/23 00:23:48;;;;;;;52.97;31.40;;;;;;;-5.18;69.70;98851.06;4149510;28;20209;-51
2021/12/23 00:25:52;;;;;;;41.27;29.03;;;;;;;-5.23;69.34;98850.66;4130374;28;20246;-50
2021/12/23 00:27:54;;;;;;;37.17;27.93;;;;;;;-5.24;69.63;98846.31;4116329;28;20579;-49
2021/12/23 00:29:56;;;;;;;47.67;31.30;;;;;;;-5.29;69.39;98843.22;4115404;28;20270;-49
2021/12/23 00:31:58;;;;;;;42.40;26.63;;;;;;;-5.31;69.62;98834.53;4161670;28;20246;-50
2021/12/23 00:33:59;;;;;;;39.33;29.93;;;;;;;-5.32;69.70;98838.19;4133685;28;20240;-49
2021/12/23 00:36:05;;;;;;;37.53;27.23;;;;;;;-5.36;69.79;98836.78;4129938;28;20249;-49
2021/12/23 00:38:16;;;;;;;40.63;27.77;;;;;;;-5.35;69.69;98837.66;4130519;28;20210;-49
2021/12/23 00:40:17;;;;;;;34.67;25.90;;;;;;;-5.33;69.38;98823.19;4118167;28;20285;-51
2021/12/23 00:42:19;;;;;;;40.07;28.33;;;;;;;-5.36;69.67;98818.13;4129479;28;20202;-50
2021/12/23 00:44:21;;;;;;;32.03;26.27;;;;;;;-5.43;70.17;98809.03;4128597;28;20202;-49
2021/12/23 00:46:22;;;;;;;41.93;30.00;;;;;;;-5.39;70.08;98829.09;4128453;28;20226;-50
2021/12/23 00:48:25;;;;;;;44.83;30.13;;;;;;;-5.38;70.22;98827.25;4146043;28;20209;-49
2021/12/23 00:50:27;;;;;;;42.23;29.83;;;;;;;-5.36;69.92;98826.13;4133395;28;20213;-49
2021/12/23 00:52:33;;;;;;;39.70;30.50;;;;;;;-5.37;70.12;98818.28;4132645;28;20209;-49
2021/12/23 00:54:35;;;;;;;40.10;29.10;;;;;;;-5.35;70.22;98819.81;4149974;28;20221;-49
2021/12/23 00:56:38;;;;;;;48.57;30.30;;;;;;;-5.32;70.16;98816.88;4147059;28;20311;-49
2021/12/23 00:58:40;;;;;;;36.63;29.73;;;;;;;-5.32;70.21;98816.88;4129181;28;20206;-49
2021/12/23 01:00:42;;;;;;;52.60;33.23;;;;;;;-5.29;70.13;98815.75;4147883;28;20240;-49
2021/12/23 01:02:46;;;;;;;45.70;29.60;;;;;;;-5.28;70.01;98817.41;4146806;28;20209;-49
2021/12/23 01:04:47;;;;;;;44.93;29.63;;;;;;;-5.26;70.07;98821.63;4145927;28;20676;-48
2021/12/23 01:06:49;;;;;;;47.50;30.10;;;;;;;-5.28;70.12;98818.28;4147238;28;20221;-49
2021/12/23 01:08:51;;;;;;;36.97;29.17;;;;;;;-5.25;70.00;98817.97;4110954;28;1160023;-49
2021/12/23 01:10:56;;;;;;;58.87;36.40;;;;;;;-5.23;69.97;98821.31;4147831;28;20197;-53
2021/12/23 01:13:02;;;;;;;67.63;38.83;;;;;;;-5.23;70.14;98826.66;4130742;28;20199;-49
2021/12/23 01:15:17;;;;;;;70.07;37.23;;;;;;;-5.22;70.34;98827.50;4129913;28;20241;-50
2021/12/23 01:19:23;;;;;;;76.13;36.97;;;;;;;-5.21;70.10;98824.72;4147079;28;20208;-51
2021/12/23 01:21:25;;;;;;;66.43;37.20;;;;;;;-5.23;69.60;98829.31;4130991;28;20198;-52
2021/12/23 01:23:26;;;;;;;75.17;39.17;;;;;;;-5.21;70.08;98824.72;4145578;28;20248;-50
2021/12/23 01:25:29;;;;;;;74.23;37.20;;;;;;;-5.22;70.24;98816.84;4160016;28;20303;-50
2021/12/23 01:27:30;;;;;;;70.53;36.93;;;;;;;-5.24;70.18;98816.97;4144889;28;20205;-47
2021/12/23 01:29:33;;;;;;;67.53;35.87;;;;;;;-5.16;70.30;98806.44;4143984;28;20582;-49
2021/12/23 01:31:37;;;;;;;63.43;34.47;;;;;;;-5.38;71.16;98801.44;4131736;28;20241;-49
2021/12/23 01:33:39;;;;;;;59.80;33.87;;;;;;;-5.36;71.13;98793.31;4145221;28;20669;-49
2021/12/23 01:35:44;;;;;;;65.83;37.00;;;;;;;-5.44;71.08;98794.03;4130409;28;20309;-50
2021/12/23 01:37:46;;;;;;;51.67;31.43;;;;;;;-5.25;70.99;98785.97;4129608;28;20779;-50
2021/12/23 01:39:48;;;;;;;44.80;31.63;;;;;;;-5.27;70.60;98777.28;4129395;28;20237;-51
2021/12/23 01:41:49;;;;;;;42.37;29.37;;;;;;;-5.40;71.18;98774.09;4145601;28;20201;-50
2021/12/23 01:43:52;;;;;;;36.60;29.07;;;;;;;-5.25;70.48;98780.66;4131618;28;20206;-48
2021/12/23 01:45:53;;;;;;;47.17;30.57;;;;;;;-5.28;70.71;98778.28;4135381;28;20269;-50
2021/12/23 01:47:56;;;;;;;43.30;32.57;;;;;;;-5.25;70.68;98783.31;4115131;28;20736;-49
2021/12/23 01:49:58;;;;;;;40.73;28.70;;;;;;;-5.20;70.77;98784.53;4146898;28;20683;-49
2021/12/23 01:52:00;;;;;;;44.40;30.57;;;;;;;-5.12;70.64;98783.84;4129415;28;20218;-49
2021/12/23 01:54:02;;;;;;;44.97;31.10;;;;;;;-5.08;70.69;98777.22;4169719;22;20244;-70
2021/12/23 01:56:04;;;;;;;38.90;27.53;;;;;;;-5.02;70.72;98777.47;4160819;28;20239;-69
2021/12/23 01:58:06;;;;;;;42.67;29.10;;;;;;;-4.95;70.51;98781.22;4174810;28;20249;-69
2021/12/23 02:00:13;;;;;;;39.67;28.63;;;;;;;-4.84;70.05;98775.72;4158428;28;20223;-73
2021/12/23 02:02:15;;;;;;;48.77;30.17;;;;;;;-4.88;70.36;98768.16;4141611;28;20288;-70
2021/12/23 02:04:16;;;;;;;36.83;29.80;;;;;;;-4.87;70.29;98759.97;4155674;28;20569;-69
2021/12/23 02:06:18;;;;;;;42.30;28.77;;;;;;;-4.78;70.25;98742.25;4158025;28;20209;-69
2021/12/23 02:08:19;;;;;;;41.13;29.60;;;;;;;-4.74;70.18;98738.31;4159176;28;20222;-70
2021/12/23 02:10:22;;;;;;;43.83;30.67;;;;;;;-4.83;70.26;98747.19;4159001;28;20212;-70
2021/12/23 02:12:24;;;;;;;31.17;27.10;;;;;;;-4.81;70.17;98753.22;4156314;28;20566;-71
2021/12/23 02:14:26;;;;;;;31.23;27.13;;;;;;;-4.80;70.26;98758.41;4157384;28;20229;-71
2021/12/23 02:16:27;;;;;;;29.13;25.97;;;;;;;-4.76;70.40;98743.78;4176232;28;20224;-70
2021/12/23 02:18:29;;;;;;;29.50;26.27;;;;;;;-4.71;70.23;98740.66;4143379;28;20292;-71
2021/12/23 02:20:33;;;;;;;30.53;27.23;;;;;;;-4.71;70.22;98732.66;4160824;28;20680;-71
2021/12/23 02:22:35;;;;;;;31.63;26.43;;;;;;;-4.70;70.20;98740.53;4162147;28;20213;-71
2021/12/23 02:24:37;;;;;;;33.00;28.17;;;;;;;-4.70;70.10;98743.19;4214441;22;20316;-84
2021/12/23 02:26:40;;;;;;;34.23;26.27;;;;;;;-4.71;70.20;98744.19;4168813;28;20580;-85
2021/12/23 02:28:41;;;;;;;33.03;25.27;;;;;;;-4.71;70.58;98744.19;4152684;28;20205;-84
2021/12/23 02:30:43;;;;;;;32.80;29.03;;;;;;;-4.69;70.47;98733.34;4155528;28;20208;-86
2021/12/23 02:32:45;;;;;;;34.87;27.87;;;;;;;-4.75;70.54;98731.25;4152008;28;20231;-85
2021/12/23 02:34:47;;;;;;;26.83;24.03;;;;;;;-4.74;70.69;98732.97;4134671;28;20229;-84
2021/12/23 02:36:54;;;;;;;33.00;26.23;;;;;;;-4.71;70.40;98730.00;4158526;28;20291;-84
2021/12/23 02:38:55;;;;;;;35.87;24.50;;;;;;;-4.74;70.46;98727.63;4159207;28;20208;-84
2021/12/23 02:40:57;;;;;;;43.50;30.83;;;;;;;-4.76;70.40;98737.59;4163123;28;20211;-84
2021/12/23 02:43:20;;;;;;;47.33;28.17;;;;;;;-4.76;70.19;98730.44;4129500;28;20253;-86
2021/12/23 02:45:22;;;;;;;38.83;27.90;;;;;;;-4.79;70.22;98729.91;4165204;28;20228;-87
2021/12/23 02:47:23;;;;;;;32.93;28.43;;;;;;;-4.84;70.09;98726.84;4136246;28;20252;-87
2021/12/23 02:49:25;;;;;;;53.83;30.83;;;;;;;-4.83;70.30;98725.84;4140729;28;20583;-83
2021/12/23 02:51:28;;;;;;;31.17;27.70;;;;;;;-4.86;70.27;98728.81;4126648;28;20209;-83
2021/12/23 02:53:29;;;;;;;43.43;29.37;;;;;;;-4.84;70.27;98721.50;4158480;28;20228;-84
2021/12/23 02:55:31;;;;;;;35.47;28.23;;;;;;;-4.84;70.04;98721.50;4134269;28;20320;-84
2021/12/23 02:57:33;;;;;;;33.23;28.47;;;;;;;-4.86;70.26;98728.81;4135007;28;20204;-84
2021/12/23 02:59:35;;;;;;;32.93;28.27;;;;;;;-4.86;70.26;98726.16;4133051;28;20234;-85
2021/12/23 03:01:36;;;;;;;39.07;29.67;;;;;;;-4.91;70.25;98723.09;4158837;28;20233;-85
2021/12/23 03:03:39;;;;;;;50.70;30.20;;;;;;;-4.91;70.05;98723.94;4177544;28;20235;-85
2021/12/23 03:05:46;;;;;;;37.90;28.87;;;;;;;-4.96;70.36;98712.00;4167588;28;20205;-85
2021/12/23 03:07:47;;;;;;;28.90;25.80;;;;;;;-4.95;70.17;98719.03;4159664;28;20280;-83
2021/12/23 03:09:50;;;;;;;29.73;26.27;;;;;;;-4.97;70.14;98713.00;4154303;28;20205;-84
2021/12/23 03:11:51;;;;;;;44.20;29.20;;;;;;;-4.98;70.21;98708.66;4131727;28;20214;-84
2021/12/23 03:13:58;;;;;;;38.63;28.37;;;;;;;-4.99;70.18;98701.66;4156072;28;20256;-83
2021/12/23 03:16:00;;;;;;;37.37;27.27;;;;;;;-5.05;70.27;98702.25;4155776;28;20677;-83
2021/12/23 03:18:04;;;;;;;36.83;28.93;;;;;;;-5.09;70.13;98704.38;4128205;28;20217;-83
2021/12/23 03:20:06;;;;;;;34.10;27.53;;;;;;;-5.10;70.45;98699.19;4159234;28;22496;-84
2021/12/23 03:22:10;;;;;;;45.73;27.77;;;;;;;-5.11;70.58;98697.50;4145235;28;20283;-83
2021/12/23 03:24:12;;;;;;;33.50;25.70;;;;;;;-5.19;70.97;98695.56;4134922;28;20316;-83
2021/12/23 03:26:14;;;;;;;42.20;28.30;;;;;;;-5.19;70.68;98694.75;4156069;28;20203;-84
2021/12/23 03:28:15;;;;;;;37.60;25.57;;;;;;;-5.27;71.24;98691.97;4133921;28;20214;-83
2021/12/23 03:30:17;;;;;;;41.57;28.53;;;;;;;-5.20;70.90;98693.06;4163322;28;20205;-82
2021/12/23 03:32:18;;;;;;;36.27;28.67;;;;;;;-5.20;70.50;98696.56;4166794;28;20197;-83
2021/12/23 03:34:20;;;;;;;48.67;29.97;;;;;;;-5.15;70.70;98688.09;4166224;28;20232;-83
2021/12/23 03:36:21;;;;;;;43.80;29.23;;;;;;;-5.15;70.68;98680.09;4125309;28;20236;-84
2021/12/23 03:38:24;;;;;;;37.97;28.83;;;;;;;-5.15;70.59;98669.44;4142989;28;20205;-85
2021/12/23 03:40:26;;;;;;;41.60;27.53;;;;;;;-5.16;70.51;98663.28;4161799;28;20212;-85
2021/12/23 03:42:27;;;;;;;34.43;27.70;;;;;;;-5.18;70.38;98659.94;4139684;28;20209;-84
2021/12/23 03:44:29;;;;;;;38.43;29.57;;;;;;;-5.17;70.42;98666.09;4159501;28;20288;-84
2021/12/23 03:46:37;;;;;;;38.70;26.90;;;;;;;-5.14;70.40;98666.63;4157116;28;20205;-84
2021/12/23 03:48:41;;;;;;;36.90;24.70;;;;;;;-5.11;70.52;98662.84;4160266;28;20210;-84
2021/12/23 03:50:44;;;;;;;26.90;24.30;;;;;;;-5.10;70.49;98667.19;4131919;28;20267;-84
2021/12/23 03:52:48;;;;;;;34.43;26.73;;;;;;;-5.10;70.31;98667.19;4154740;28;20208;-83
2021/12/23 03:54:50;;;;;;;34.83;28.17;;;;;;;-5.11;70.44;98668.16;4156419;28;20233;-84
2021/12/23 03:56:52;;;;;;;32.63;27.07;;;;;;;-5.10;70.23;98672.50;4155504;28;20615;-83
2021/12/23 03:58:55;;;;;;;33.67;26.43;;;;;;;-5.09;70.48;98668.84;4127764;28;20950;-84
2021/12/23 04:00:59;;;;;;;28.10;25.30;;;;;;;-5.09;70.28;98658.19;4147811;28;20209;-83
2021/12/23 04:03:03;;;;;;;25.97;23.43;;;;;;;-5.10;70.44;98661.84;4154278;28;20263;-84
2021/12/23 04:05:09;;;;;;;31.87;26.07;;;;;;;-5.08;70.42;98660.72;4140597;28;20997;-85
2021/12/23 04:07:10;;;;;;;33.80;27.53;;;;;;;-5.09;70.52;98660.84;4147780;28;20269;-84
2021/12/23 04:09:12;;;;;;;35.07;26.13;;;;;;;-5.10;70.38;98656.50;4158751;28;20219;-85
2021/12/23 04:11:14;;;;;;;31.93;27.50;;;;;;;-5.23;70.86;98653.34;4158300;28;20206;-84
2021/12/23 04:13:15;;;;;;;30.63;26.03;;;;;;;-5.18;70.74;98649.28;4154200;28;20197;-84
2021/12/23 04:15:18;;;;;;;44.17;30.63;;;;;;;-5.24;70.81;98641.03;4145149;28;20233;-85
2021/12/23 04:17:19;;;;;;;37.17;28.80;;;;;;;-5.17;70.86;98644.75;4132118;28;20233;-83
2021/12/23 04:19:27;;;;;;;35.90;27.03;;;;;;;-5.12;70.62;98642.50;4141253;28;20600;-86
2021/12/23 04:21:28;;;;;;;30.17;26.93;;;;;;;-5.08;70.66;98633.22;4145677;28;20197;-83
2021/12/23 04:23:34;;;;;;;36.00;27.47;;;;;;;-5.07;70.74;98629.56;4121117;28;20277;-84
2021/12/23 04:25:37;;;;;;;33.07;26.83;;;;;;;-5.03;70.72;98631.78;4163365;28;20542;-84
2021/12/23 04:27:39;;;;;;;31.50;28.13;;;;;;;-4.99;70.57;98621.66;4144800;28;20595;-84
2021/12/23 04:29:40;;;;;;;33.53;28.40;;;;;;;-5.00;70.50;98606.63;4142018;28;20214;-84
2021/12/23 04:31:43;;;;;;;34.63;27.73;;;;;;;-4.99;70.75;98600.31;4146667;28;20256;-83
2021/12/23 04:33:46;;;;;;;44.30;29.70;;;;;;;-5.00;70.79;98598.63;4167462;28;20236;-86
2021/12/23 04:35:48;;;;;;;37.53;28.80;;;;;;;-4.97;70.62;98593.84;4129439;28;20701;-84
2021/12/23 04:37:49;;;;;;;48.27;32.77;;;;;;;-4.95;70.48;98591.00;4139576;28;20208;-86
2021/12/23 04:39:51;;;;;;;44.50;31.63;;;;;;;-4.93;70.73;98589.03;4158668;28;20208;-86
2021/12/23 04:41:52;;;;;;;43.00;28.47;;;;;;;-4.94;70.44;98592.69;4128644;28;20269;-85
2021/12/23 04:43:54;;;;;;;45.40;31.47;;;;;;;-4.94;70.80;98598.84;4165426;28;20724;-86
2021/12/23 04:45:58;;;;;;;36.73;26.50;;;;;;;-4.89;70.65;98606.38;4145134;28;20215;-85
2021/12/23 04:48:00;;;;;;;40.03;28.77;;;;;;;-4.86;70.37;98600.78;4148336;28;20233;-86
2021/12/23 04:50:05;;;;;;;42.07;30.73;;;;;;;-4.80;70.64;98606.31;4160701;28;20675;-86
2021/12/23 04:52:07;;;;;;;32.23;28.77;;;;;;;-4.76;70.45;98612.19;4123837;28;20235;-85
2021/12/23 04:54:08;;;;;;;34.93;26.27;;;;;;;-4.76;70.37;98612.19;4146357;28;20663;-85
2021/12/23 04:56:10;;;;;;;30.77;26.37;;;;;;;-4.78;70.53;98608.84;4161722;28;20695;-86
2021/12/23 04:58:12;;;;;;;33.13;26.53;;;;;;;-4.74;70.34;98616.38;4126434;28;20286;-85
2021/12/23 05:00:20;;;;;;;27.93;25.10;;;;;;;-4.77;70.50;98610.50;4147079;28;20213;-85
2021/12/23 05:02:21;;;;;;;25.80;23.13;;;;;;;-4.78;70.44;98603.50;4147266;28;20265;-86
2021/12/23 05:04:31;;;;;;;28.33;25.40;;;;;;;-4.78;70.32;98603.50;4128591;28;20738;-86
2021/12/23 05:06:32;;;;;;;27.87;25.13;;;;;;;-4.75;70.54;98598.72;4156700;28;20216;-86
2021/12/23 05:08:34;;;;;;;30.17;23.57;;;;;;;-4.86;70.88;98598.09;4166322;28;20196;-85
2021/12/23 05:10:36;;;;;;;29.07;25.67;;;;;;;-4.90;70.70;98600.22;4132401;28;20654;-85
2021/12/23 05:12:45;;;;;;;37.27;26.67;;;;;;;-4.91;70.63;98595.03;4158948;28;20208;-87
2021/12/23 05:14:46;;;;;;;37.50;27.23;;;;;;;-4.92;70.47;98596.03;4166609;28;20228;-84
2021/12/23 05:16:48;;;;;;;40.57;29.00;;;;;;;-4.88;70.65;98594.75;4159276;28;20247;-85
2021/12/23 05:18:52;;;;;;;32.80;25.27;;;;;;;-4.87;70.61;98599.09;4143589;28;20214;-86
2021/12/23 05:20:57;;;;;;;33.47;27.67;;;;;;;-4.85;70.59;98607.78;4125036;28;20205;-86
2021/12/23 05:22:59;;;;;;;34.37;28.13;;;;;;;-4.85;70.49;98602.44;4146797;28;20915;-85
2021/12/23 05:25:01;;;;;;;36.93;28.00;;;;;;;-4.78;70.29;98604.38;4147225;28;20229;-83
2021/12/23 05:27:11;;;;;;;35.13;27.67;;;;;;;-4.84;70.45;98596.13;4164454;28;20204;-87
2021/12/23 05:29:14;;;;;;;29.10;24.07;;;;;;;-4.78;70.72;98598.16;4139716;28;20213;-87
2021/12/23 05:31:15;;;;;;;28.97;25.93;;;;;;;-4.85;70.77;98591.78;4143039;28;20213;-86
2021/12/23 05:33:17;;;;;;;31.17;25.73;;;;;;;-4.94;71.32;98592.69;4149331;28;20789;-86
2021/12/23 05:35:20;;;;;;;25.77;23.27;;;;;;;-4.95;71.27;98591.84;4148222;28;20300;-85
2021/12/23 05:37:22;;;;;;;32.60;26.70;;;;;;;-4.95;71.13;98589.19;4125965;28;20254;-85
2021/12/23 05:39:24;;;;;;;33.60;27.27;;;;;;;-4.90;71.11;98599.38;4139481;28;20216;-85
2021/12/23 05:41:32;;;;;;;25.77;21.90;;;;;;;-4.86;70.80;98584.75;4149077;28;20232;-86
2021/12/23 05:43:34;;;;;;;29.63;25.37;;;;;;;-4.84;71.07;98572.09;4161830;28;20231;-85
2021/12/23 05:45:35;;;;;;;28.97;25.10;;;;;;;-4.99;71.27;98581.63;4162826;28;20211;-84
2021/12/23 05:47:37;;;;;;;30.83;27.07;;;;;;;-5.07;71.52;98586.91;4132480;28;20212;-86
2021/12/23 05:49:38;;;;;;;38.40;27.93;;;;;;;-5.06;71.47;98578.72;4148980;28;20201;-85
2021/12/23 05:51:42;;;;;;;31.37;24.03;;;;;;;-5.02;71.45;98589.91;4134960;28;20224;-85
2021/12/23 05:53:44;;;;;;;30.43;26.53;;;;;;;-5.04;71.60;98578.56;4152044;28;20236;-85
2021/12/23 05:55:55;;;;;;;29.90;26.90;;;;;;;-5.14;71.71;98572.50;4164423;28;20205;-85
2021/12/23 05:57:57;;;;;;;48.13;30.67;;;;;;;-5.07;72.07;98565.56;4149457;28;20213;-85
2021/12/23 06:00:00;;;;;;;47.93;39.03;;;;;;;-5.10;71.68;98550.69;4159749;28;20220;-86
2021/12/23 06:02:05;;;;;;;43.90;34.53;;;;;;;-5.10;72.21;98565.84;4167598;28;20190;-84
2021/12/23 06:04:07;;;;;;;43.00;31.77;;;;;;;-4.95;71.87;98565.16;4160844;28;20213;-87
2021/12/23 06:06:14;;;;;;;32.33;28.50;;;;;;;-4.92;71.50;98572.03;4164209;28;20233;-85
2021/12/23 06:08:16;;;;;;;30.13;27.10;;;;;;;-4.89;71.30;98567.22;4147849;28;20209;-86
2021/12/23 06:10:18;;;;;;;34.50;26.00;;;;;;;-4.94;71.75;98560.69;4163118;28;20193;-85
2021/12/23 06:12:19;;;;;;;29.00;26.03;;;;;;;-4.94;71.54;98563.34;4176614;28;20228;-84
2021/12/23 06:14:22;;;;;;;30.47;26.33;;;;;;;-4.93;71.60;98562.34;4155886;28;20355;-85
2021/12/23 06:16:23;;;;;;;25.90;23.50;;;;;;;-4.94;71.68;98550.03;4149654;28;20784;-87
2021/12/23 06:18:25;;;;;;;28.23;25.53;;;;;;;-4.91;70.87;98533.69;4165088;28;20728;-86
2021/12/23 06:20:26;;;;;;;32.33;25.17;;;;;;;-4.95;71.64;98542.97;4143537;28;20216;-83
2021/12/23 06:22:28;;;;;;;27.90;25.10;;;;;;;-4.97;71.53;98556.50;4161118;28;20204;-85
2021/12/23 06:24:32;;;;;;;28.93;25.03;;;;;;;-4.95;71.88;98553.66;4129563;28;20320;-85
2021/12/23 06:26:33;;;;;;;29.67;25.47;;;;;;;-4.87;71.61;98559.09;4160492;28;20304;-85
2021/12/23 06:28:37;;;;;;;29.47;23.90;;;;;;;-4.90;71.51;98560.22;4160173;28;20292;-85
2021/12/23 06:30:39;;;;;;;25.43;22.83;;;;;;;-4.69;71.08;98538.53;4145643;28;20198;-84
2021/12/23 06:32:48;;;;;;;33.07;27.13;;;;;;;-4.80;71.20;98530.81;4159378;28;22409;-84
2021/12/23 06:34:53;;;;;;;26.83;24.20;;;;;;;-4.87;71.18;98537.75;4142958;28;20272;-84
2021/12/23 06:36:55;;;;;;;44.37;30.20;;;;;;;-4.92;71.07;98521.34;4160461;28;20376;-85
2021/12/23 06:38:56;;;;;;;42.47;33.33;;;;;;;-4.90;71.51;98514.03;4146772;28;20261;-85
2021/12/23 06:40:58;;;;;;;60.50;36.03;;;;;;;-4.93;71.40;98525.84;4144100;28;20205;-84
2021/12/23 06:43:00;;;;;;;51.27;32.40;;;;;;;-4.93;71.33;98525.00;4133067;28;20210;-84
2021/12/23 06:45:04;;;;;;;36.70;29.50;;;;;;;-4.91;71.25;98529.22;4134382;28;20731;-84
2021/12/23 06:47:05;;;;;;;40.37;30.13;;;;;;;-4.90;71.17;98533.56;4164365;28;20204;-83
2021/12/23 06:49:07;;;;;;;33.93;28.77;;;;;;;-4.89;71.21;98537.88;4143587;28;20560;-84
2021/12/23 06:51:11;;;;;;;31.93;25.90;;;;;;;-4.88;71.33;98549.41;4150136;28;20607;-84
2021/12/23 06:53:14;;;;;;;31.90;26.23;;;;;;;-4.83;71.33;98542.63;4152565;28;20209;-84
2021/12/23 06:55:17;;;;;;;29.43;26.37;;;;;;;-4.88;71.15;98538.75;4158586;28;20207;-85
2021/12/23 06:57:19;;;;;;;26.93;24.37;;;;;;;-4.87;71.45;98533.22;4130539;28;20226;-84
2021/12/23 06:59:21;;;;;;;27.63;24.83;;;;;;;-4.87;71.01;98529.75;4127299;28;20843;-84
2021/12/23 07:01:24;;;;;;;28.30;25.63;;;;;;;-4.87;71.06;98546.56;4159343;28;20213;-83
2021/12/23 07:03:37;;;;;;;28.10;25.07;;;;;;;-4.86;71.34;98542.09;4143526;28;20209;-84
2021/12/23 07:05:43;;;;;;;33.07;26.70;;;;;;;-4.88;70.97;98534.22;4162821;28;20351;-84
2021/12/23 07:07:54;;;;;;;36.97;26.33;;;;;;;-4.86;71.43;98534.91;4133566;28;20209;-83
2021/12/23 07:10:01;;;;;;;30.43;24.97;;;;;;;-4.80;71.26;98530.81;4129030;28;20202;-85
2021/12/23 07:12:04;;;;;;;33.30;26.03;;;;;;;-4.82;71.41;98532.75;4146992;28;20208;-85
2021/12/23 07:14:05;;;;;;;36.13;26.83;;;;;;;-4.81;71.28;98535.28;4141317;28;20308;-85
2021/12/23 07:16:07;;;;;;;37.73;28.67;;;;;;;-4.79;71.42;98521.81;4154377;28;20209;-84
2021/12/23 07:18:11;;;;;;;31.17;27.37;;;;;;;-4.70;70.83;98532.38;4155301;28;20214;-84
2021/12/23 07:20:15;;;;;;;33.57;30.07;;;;;;;-4.75;71.55;98541.81;4126235;28;20288;-84
2021/12/23 07:22:16;;;;;;;32.60;26.50;;;;;;;-4.76;71.15;98548.16;4148860;28;20209;-84
2021/12/23 07:24:18;;;;;;;37.97;32.73;;;;;;;-4.76;71.27;98556.16;4152489;28;20791;-85
2021/12/23 07:26:20;;;;;;;41.63;31.30;;;;;;;-4.73;71.30;98558.53;4147732;28;20210;-84
2021/12/23 07:28:22;;;;;;;46.03;31.17;;;;;;;-4.65;71.58;98547.94;4149273;28;20206;-83
2021/12/23 07:30:24;;;;;;;35.57;30.13;;;;;;;-4.67;71.24;98541.91;4138919;28;20656;-84
2021/12/23 07:32:25;;;;;;;35.20;27.83;;;;;;;-4.70;71.14;98528.88;4141793;28;20288;-84
2021/12/23 07:34:27;;;;;;;30.07;26.83;;;;;;;-4.70;71.28;98521.72;4139518;28;20276;-84
2021/12/23 07:36:31;;;;;;;28.30;25.67;;;;;;;-4.67;71.30;98520.56;4128997;28;20556;-84
2021/12/23 07:38:33;;;;;;;37.00;26.00;;;;;;;-4.67;71.08;98525.91;4142866;28;20288;-85
2021/12/23 07:40:36;;;;;;;34.30;26.97;;;;;;;-4.50;71.20;98517.00;4143625;28;20663;-85
2021/12/23 07:42:38;;;;;;;35.23;30.40;;;;;;;-4.43;71.05;98528.72;4153225;28;20232;-85
2021/12/23 07:44:41;;;;;;;65.27;36.40;;;;;;;-4.42;70.78;98533.91;4143530;28;20231;-86
2021/12/23 07:46:43;;;;;;;62.33;36.83;;;;;;;-4.51;70.78;98531.34;4164672;28;20215;-85
2021/12/23 07:48:44;;;;;;;60.27;36.13;;;;;;;-4.54;70.58;98531.69;4142450;28;20222;-85
2021/12/23 07:50:46;;;;;;;65.73;36.50;;;;;;;-4.52;70.80;98529.69;4140284;28;20805;-86
2021/12/23 07:52:47;;;;;;;55.63;35.23;;;;;;;-4.44;70.58;98522.56;4161172;28;20209;-86
2021/12/23 07:54:52;;;;;;;49.23;35.10;;;;;;;-4.47;71.22;98524.72;4136277;28;20738;-86
2021/12/23 07:56:53;;;;;;;40.03;32.40;;;;;;;-4.52;71.41;98513.66;4145697;28;20232;-86
2021/12/23 07:58:55;;;;;;;42.10;30.63;;;;;;;-4.51;71.62;98512.66;4146772;28;20244;-85
2021/12/23 08:00:58;;;;;;;33.53;29.17;;;;;;;-4.51;71.63;98504.66;4142747;28;20212;-86
2021/12/23 08:02:59;;;;;;;36.97;28.60;;;;;;;-4.60;72.00;98510.94;4144791;28;20236;-85
2021/12/23 08:05:02;;;;;;;40.03;29.40;;;;;;;-4.56;72.04;98507.81;4141871;28;20225;-86
2021/12/23 08:07:03;;;;;;;40.30;27.10;;;;;;;-4.46;71.71;98513.03;4160204;28;20212;-86
2021/12/23 08:09:05;;;;;;;33.37;25.90;;;;;;;-4.38;71.78;98510.41;4155133;28;20233;-86
2021/12/23 08:11:10;;;;;;;27.87;24.67;;;;;;;-4.38;71.73;98515.75;4163981;28;20225;-86
2021/12/23 08:13:16;;;;;;;34.90;28.53;;;;;;;-4.34;71.70;98527.81;4146078;28;20206;-86
2021/12/23 08:15:18;;;;;;;31.00;25.77;;;;;;;-4.28;71.85;98511.16;4165208;28;20201;-86
2021/12/23 08:17:19;;;;;;;29.37;26.47;;;;;;;-4.27;71.52;98507.50;4171237;28;20374;-86
2021/12/23 08:19:21;;;;;;;29.07;26.30;;;;;;;-4.16;71.45;98501.84;4153265;28;20205;-84
2021/12/23 08:21:26;;;;;;;40.33;28.30;;;;;;;-4.15;71.65;98500.88;4157845;28;20209;-86
2021/12/23 08:23:28;;;;;;;39.13;29.93;;;;;;;-4.10;71.70;98509.25;4144926;28;20760;-84
2021/12/23 08:25:36;;;;;;;50.63;34.33;;;;;;;-4.06;71.74;98500.75;4148792;28;20208;-86
2021/12/23 08:27:41;;;;;;;69.30;40.73;;;;;;;-4.00;71.61;98499.28;4159379;28;20208;-85
2021/12/23 08:29:43;;;;;;;71.13;40.30;;;;;;;-3.96;71.55;98492.59;4167451;28;21013;-85
2021/12/23 08:31:46;;;;;;;64.40;38.03;;;;;;;-3.90;71.82;98505.34;4132884;28;20671;-85
2021/12/23 08:33:48;;;;;;;53.40;36.70;;;;;;;-3.82;71.84;98502.69;4146355;28;20241;-85
2021/12/23 08:35:50;;;;;;;58.13;36.33;;;;;;;-3.74;72.38;98495.53;4146531;28;20837;-86
2021/12/23 08:37:51;;;;;;;51.33;34.13;;;;;;;-3.66;72.33;98492.06;4135016;28;20230;-86
2021/12/23 08:39:54;;;;;;;49.90;35.17;;;;;;;-3.56;72.32;98490.09;4130305;28;20762;-86
2021/12/23 08:41:55;;;;;;;51.43;35.77;;;;;;;-3.53;72.41;98498.63;4160027;28;20279;-86
2021/12/23 08:43:57;;;;;;;49.20;32.77;;;;;;;-3.45;72.17;98505.84;4144435;28;20237;-86
2021/12/23 08:45:59;;;;;;;48.60;32.47;;;;;;;-3.39;72.58;98502.50;4141752;28;20202;-87
2021/12/23 08:48:03;;;;;;;67.73;35.97;;;;;;;-3.35;73.36;98499.34;4159160;28;20697;-86
2021/12/23 08:50:09;;;;;;;73.50;39.27;;;;;;;-3.33;73.86;98501.88;4146422;28;20593;-87
2021/12/23 08:52:13;;;;;;;65.00;39.53;;;;;;;-3.30;73.71;98499.69;4144729;28;20213;-86
2021/12/23 08:54:14;;;;;;;54.53;36.50;;;;;;;-3.25;74.16;98491.19;4144494;28;20234;-86
2021/12/23 08:56:16;;;;;;;43.77;34.43;;;;;;;-3.22;73.98;98494.34;4163454;28;20216;-86
2021/12/23 08:58:18;;;;;;;52.00;34.00;;;;;;;-3.15;74.29;98486.53;4135497;28;20328;-86
2021/12/23 09:00:19;;;;;;;53.63;33.13;;;;;;;-3.11;74.51;98477.16;4162243;28;20219;-86
2021/12/23 09:02:31;;;;;;;;;;;;;;;;;;;;;
2021/12/23 09:04:38;;;;;;;39.20;30.80;;;;;;;-2.93;74.51;98480.50;4143465;28;20663;-86
2021/12/23 09:06:42;;;;;;;42.10;31.07;;;;;;;-2.95;75.10;98477.19;4145033;28;20204;-86
2021/12/23 09:08:45;;;;;;;41.77;30.77;;;;;;;-2.87;75.18;98474.50;4165036;28;20208;-86
2021/12/23 09:10:46;;;;;;;49.60;34.30;;;;;;;-2.80;75.60;98480.84;4143018;28;20215;-86
2021/12/23 09:12:48;;;;;;;44.53;31.53;;;;;;;-2.81;75.62;98480.00;4126021;28;20293;-85
2021/12/23 09:14:50;;;;;;;56.90;32.27;;;;;;;-2.72;75.60;98491.56;4162838;28;20219;-86
2021/12/23 09:16:54;;;;;;;61.13;32.90;;;;;;;-2.64;75.73;98488.88;4136208;28;20217;-85
2021/12/23 09:18:56;;;;;;;51.63;33.83;;;;;;;-2.54;75.78;98482.31;4129882;28;20224;-85
2021/12/23 09:20:57;;;;;;;61.43;33.47;;;;;;;-2.53;75.44;98480.50;4144433;28;20210;-85
2021/12/23 09:23:02;;;;;;;50.37;35.63;;;;;;;-2.51;76.02;98489.19;4150413;28;20209;-86
2021/12/23 09:25:11;;;;;;;47.90;32.33;;;;;;;-2.48;75.85;98491.53;4151272;28;20233;-85
2021/12/23 09:27:42;;;;;;;45.00;31.20;;;;;;;-2.41;75.69;98498.72;4133039;28;20867;-86
2021/12/23 09:34:05;;;;;;;45.03;32.50;;;;;;;-2.09;75.57;98513.88;4165101;28;20235;-86
2021/12/23 09:36:11;;;;;;;41.10;30.70;;;;;;;-2.12;76.17;98508.88;4126587;28;20233;-86
2021/12/23 09:38:13;;;;;;;50.57;33.17;;;;;;;-2.03;75.68;98505.16;4127689;28;20635;-85